Observations for Trim Market St
| Time | AQI | Temp °C | Hum % | Pres Pa | CO μg/m³ | H₂S μg/m³ | NO μg/m³ | NO₂ μg/m³ | O₃ μg/m³ | SO₂ μg/m³ | PM1 μg/m³ | PM2.5 μg/m³ | PM10 μg/m³ |
|---|---|---|---|---|---|---|---|---|---|---|---|---|---|
| Tuesday 18 August 2026 | |||||||||||||
| 03:37 | 2 | 18.5 | 75 | 39,929 | 0 | 0 | 1.79 | 0.68 | 51.63 | 0 | 1.43 | 3.28 | 6.34 |
| 03:36 | 2 | 18.5 | 76 | 37,794 | 0.01 | 0 | 1.79 | 1.34 | 49.48 | 0 | 1.43 | 3.27 | 5.75 |
| 03:35 | 2 | 18.5 | 76 | 35,339 | 0 | 0 | 1.79 | 1.04 | 47.93 | 0 | 1.43 | 2.31 | 4.57 |
| 03:34 | 2 | 18.5 | 76 | 32,941 | 0.03 | 0 | 1.79 | 1.97 | 51.35 | 0 | 1.43 | 4.21 | 8.12 |
| 03:33 | 2 | 18.5 | 76 | 30,497 | 0.02 | 0 | 1.81 | 1.95 | 51.81 | 0 | 0 | 1.81 | 4.58 |
| 03:32 | 2 | 18.5 | 76 | 28,319 | 0.02 | 0 | 1.81 | 1.84 | 50.42 | 0 | 0.71 | 2.28 | 4.58 |
| 03:31 | 2 | 18.6 | 76 | 25,959 | 0.02 | 0 | 1.81 | 2.28 | 50.38 | 0 | 0.71 | 2.27 | 4.59 |
| 03:30 | 2 | 18.6 | 77 | 23,552 | 0.01 | 0 | 1.81 | 1.87 | 50.96 | 0 | 1.43 | 2.27 | 4.59 |
| 03:29 | 2 | 18.6 | 77 | 20,868 | 0.02 | 0 | 1.82 | 1.62 | 48.64 | 0 | 0.71 | 2.26 | 4.6 |
| 03:28 | 2 | 18.6 | 77 | 18,050 | 0.04 | 0 | 1.8 | 2.12 | 49.93 | 0 | 0.71 | 1.77 | 4.6 |
| 03:27 | 2 | 18.6 | 77 | 15,350 | 0.05 | 0 | 1.81 | 3.67 | 54.56 | 0 | 0.71 | 1.77 | 5.19 |
| 03:26 | 2 | 18.6 | 77 | 14,214 | 0.03 | 0 | 1.82 | 2.98 | 52.11 | 0 | 0.71 | 2.24 | 5.19 |
| 03:23 | 2 | 18.6 | 77 | 12,848 | 0.03 | 0 | 1.82 | 3.08 | 50.5 | 0 | 0.71 | 1.29 | 3.44 |
| 03:20 | 2 | 18.7 | 77 | 9,972 | 0.02 | 0 | 1.8 | 3.06 | 54.22 | 0 | 0 | 1.28 | 4.03 |
| 03:17 | 2 | 18.6 | 77 | 9,624 | 0.03 | 0 | 1.82 | 3.22 | 52.26 | 0 | 0 | 1.76 | 4.03 |
| 03:16 | 2 | 18.7 | 77 | 9,599 | 0.02 | 0 | 1.8 | 3.57 | 66.14 | 0 | 0 | 1.76 | 4.03 |
| 03:07 | 2 | 18.7 | 77 | 10,550 | 0 | 0 | 1.79 | 2.87 | 51.73 | 0 | 0 | 1.29 | 5.19 |
| 03:06 | 2 | 18.7 | 77 | 10,824 | 0.02 | 0 | 1.79 | 3.45 | 57.07 | 0 | 0.71 | 1.76 | 4.03 |
| 03:05 | 2 | 18.7 | 77 | 11,264 | 0 | 0 | 1.8 | 2.88 | 55.55 | 0 | 0.71 | 2.24 | 5.19 |
| 03:04 | 2 | 18.7 | 77 | 11,737 | 0 | 0 | 1.82 | 3.47 | 54.49 | 0 | 0.71 | 2.24 | 4.61 |